sensor_id;sensor_type;location;lat;lon;timestamp;temperature;humidity
2130;DHT22;1071;52.544;13.374;2023-01-08T00:00:12;11.00;99.90
2130;DHT22;1071;52.544;13.374;2023-01-08T00:02:45;11.00;99.90
2130;DHT22;1071;52.544;13.374;2023-01-08T00:05:29;11.00;99.90
2130;DHT22;1071;52.544;13.374;2023-01-08T00:07:57;11.00;99.90
2130;DHT22;1071;52.544;13.374;2023-01-08T00:10:35;10.90;99.90
2130;DHT22;1071;52.544;13.374;2023-01-08T00:13:03;10.90;99.90
2130;DHT22;1071;52.544;13.374;2023-01-08T00:15:34;10.90;99.90
2130;DHT22;1071;52.544;13.374;2023-01-08T00:18:02;10.90;99.90
2130;DHT22;1071;52.544;13.374;2023-01-08T00:20:30;10.90;99.90
2130;DHT22;1071;52.544;13.374;2023-01-08T00:23:15;10.80;99.90
2130;DHT22;1071;52.544;13.374;2023-01-08T00:26:34;10.80;99.90
2130;DHT22;1071;52.544;13.374;2023-01-08T00:29:10;10.80;99.90
2130;DHT22;1071;52.544;13.374;2023-01-08T00:31:40;10.80;99.90
2130;DHT22;1071;52.544;13.374;2023-01-08T00:34:10;10.80;99.90
2130;DHT22;1071;52.544;13.374;2023-01-08T00:36:38;10.70;99.90
2130;DHT22;1071;52.544;13.374;2023-01-08T00:39:05;10.70;99.90
2130;DHT22;1071;52.544;13.374;2023-01-08T00:41:37;10.70;99.90
2130;DHT22;1071;52.544;13.374;2023-01-08T00:44:12;10.70;99.90
2130;DHT22;1071;52.544;13.374;2023-01-08T00:46:42;10.70;99.90
2130;DHT22;1071;52.544;13.374;2023-01-08T00:49:17;10.70;99.90
2130;DHT22;1071;52.544;13.374;2023-01-08T00:51:54;10.60;99.90
2130;DHT22;1071;52.544;13.374;2023-01-08T00:54:21;10.60;99.90
2130;DHT22;1071;52.544;13.374;2023-01-08T00:56:53;10.50;99.90
2130;DHT22;1071;52.544;13.374;2023-01-08T00:59:21;10.50;99.90
2130;DHT22;1071;52.544;13.374;2023-01-08T01:01:50;10.50;99.90
2130;DHT22;1071;52.544;13.374;2023-01-08T01:04:20;10.50;99.90
2130;DHT22;1071;52.544;13.374;2023-01-08T01:06:48;10.50;99.90
2130;DHT22;1071;52.544;13.374;2023-01-08T01:09:18;10.40;99.90
2130;DHT22;1071;52.544;13.374;2023-01-08T01:11:45;10.40;99.90
2130;DHT22;1071;52.544;13.374;2023-01-08T01:14:16;10.40;99.90
2130;DHT22;1071;52.544;13.374;2023-01-08T01:16:44;10.40;99.90
2130;DHT22;1071;52.544;13.374;2023-01-08T01:19:19;10.40;99.90
2130;DHT22;1071;52.544;13.374;2023-01-08T01:21:48;10.40;99.90
2130;DHT22;1071;52.544;13.374;2023-01-08T01:24:15;10.30;99.90
2130;DHT22;1071;52.544;13.374;2023-01-08T01:26:49;10.30;99.90
2130;DHT22;1071;52.544;13.374;2023-01-08T01:29:22;10.30;99.90
2130;DHT22;1071;52.544;13.374;2023-01-08T01:31:52;10.30;99.90
2130;DHT22;1071;52.544;13.374;2023-01-08T01:34:22;10.30;99.90
2130;DHT22;1071;52.544;13.374;2023-01-08T01:36:51;10.30;99.90
2130;DHT22;1071;52.544;13.374;2023-01-08T01:39:21;10.30;99.90
2130;DHT22;1071;52.544;13.374;2023-01-08T01:41:49;10.30;99.90
2130;DHT22;1071;52.544;13.374;2023-01-08T01:44:37;10.30;99.90
2130;DHT22;1071;52.544;13.374;2023-01-08T01:47:12;10.30;99.90
2130;DHT22;1071;52.544;13.374;2023-01-08T01:49:53;10.20;99.90
2130;DHT22;1071;52.544;13.374;2023-01-08T01:52:24;10.20;99.90
2130;DHT22;1071;52.544;13.374;2023-01-08T01:54:54;10.10;99.90
2130;DHT22;1071;52.544;13.374;2023-01-08T01:57:24;10.10;99.90
2130;DHT22;1071;52.544;13.374;2023-01-08T01:59:55;10.10;99.90
2130;DHT22;1071;52.544;13.374;2023-01-08T02:02:36;10.10;99.90
2130;DHT22;1071;52.544;13.374;2023-01-08T02:05:06;10.00;99.90
2130;DHT22;1071;52.544;13.374;2023-01-08T02:07:45;10.00;99.90
2130;DHT22;1071;52.544;13.374;2023-01-08T02:10:19;10.00;99.90
2130;DHT22;1071;52.544;13.374;2023-01-08T02:12:53;10.00;99.90
2130;DHT22;1071;52.544;13.374;2023-01-08T02:15:37;9.90;99.90
2130;DHT22;1071;52.544;13.374;2023-01-08T02:18:19;9.90;99.90
2130;DHT22;1071;52.544;13.374;2023-01-08T02:20:50;9.90;99.90
2130;DHT22;1071;52.544;13.374;2023-01-08T02:23:36;9.90;99.90
2130;DHT22;1071;52.544;13.374;2023-01-08T02:26:22;9.90;99.90
2130;DHT22;1071;52.544;13.374;2023-01-08T02:28:54;9.90;99.90
2130;DHT22;1071;52.544;13.374;2023-01-08T02:31:36;9.80;99.90
2130;DHT22;1071;52.544;13.374;2023-01-08T02:34:05;9.80;99.90
2130;DHT22;1071;52.544;13.374;2023-01-08T02:36:35;9.80;99.90
2130;DHT22;1071;52.544;13.374;2023-01-08T02:39:14;9.80;99.90
2130;DHT22;1071;52.544;13.374;2023-01-08T02:41:54;9.80;99.90
2130;DHT22;1071;52.544;13.374;2023-01-08T02:44:28;9.80;99.90
2130;DHT22;1071;52.544;13.374;2023-01-08T02:47:00;9.70;99.90
2130;DHT22;1071;52.544;13.374;2023-01-08T02:49:32;9.70;99.90
2130;DHT22;1071;52.544;13.374;2023-01-08T02:52:05;9.70;99.90
2130;DHT22;1071;52.544;13.374;2023-01-08T02:54:41;9.70;99.90
2130;DHT22;1071;52.544;13.374;2023-01-08T02:57:25;9.70;99.90
2130;DHT22;1071;52.544;13.374;2023-01-08T02:59:54;9.70;99.90
2130;DHT22;1071;52.544;13.374;2023-01-08T03:02:24;9.70;99.90
2130;DHT22;1071;52.544;13.374;2023-01-08T03:04:55;9.70;99.90
2130;DHT22;1071;52.544;13.374;2023-01-08T03:07:25;9.60;99.90
2130;DHT22;1071;52.544;13.374;2023-01-08T03:09:52;9.60;99.90
2130;DHT22;1071;52.544;13.374;2023-01-08T03:12:39;9.60;99.90
2130;DHT22;1071;52.544;13.374;2023-01-08T03:15:13;9.60;99.90
2130;DHT22;1071;52.544;13.374;2023-01-08T03:17:44;9.60;99.90
2130;DHT22;1071;52.544;13.374;2023-01-08T03:20:15;9.60;99.90
2130;DHT22;1071;52.544;13.374;2023-01-08T03:22:48;9.50;99.90
2130;DHT22;1071;52.544;13.374;2023-01-08T03:25:17;9.60;99.90
2130;DHT22;1071;52.544;13.374;2023-01-08T03:27:49;9.50;99.90
2130;DHT22;1071;52.544;13.374;2023-01-08T03:30:20;9.50;99.90
2130;DHT22;1071;52.544;13.374;2023-01-08T03:32:51;9.50;99.90
2130;DHT22;1071;52.544;13.374;2023-01-08T03:35:22;9.50;99.90
2130;DHT22;1071;52.544;13.374;2023-01-08T03:37:53;9.50;99.90
2130;DHT22;1071;52.544;13.374;2023-01-08T03:40:24;9.50;99.90
2130;DHT22;1071;52.544;13.374;2023-01-08T03:42:58;9.50;99.90
2130;DHT22;1071;52.544;13.374;2023-01-08T03:45:26;9.50;99.90
2130;DHT22;1071;52.544;13.374;2023-01-08T03:47:56;9.50;99.90
2130;DHT22;1071;52.544;13.374;2023-01-08T03:50:26;9.50;99.90
2130;DHT22;1071;52.544;13.374;2023-01-08T03:52:56;9.50;99.90
2130;DHT22;1071;52.544;13.374;2023-01-08T03:55:26;9.50;99.90
2130;DHT22;1071;52.544;13.374;2023-01-08T03:57:55;9.40;99.90
2130;DHT22;1071;52.544;13.374;2023-01-08T04:00:28;9.40;99.90
2130;DHT22;1071;52.544;13.374;2023-01-08T04:02:56;9.40;99.90
2130;DHT22;1071;52.544;13.374;2023-01-08T04:05:23;9.40;99.90
2130;DHT22;1071;52.544;13.374;2023-01-08T04:07:53;9.40;99.90
2130;DHT22;1071;52.544;13.374;2023-01-08T04:10:25;9.40;99.90
2130;DHT22;1071;52.544;13.374;2023-01-08T04:12:52;9.40;99.90
2130;DHT22;1071;52.544;13.374;2023-01-08T04:15:21;9.40;99.90
2130;DHT22;1071;52.544;13.374;2023-01-08T04:17:47;9.40;99.90
2130;DHT22;1071;52.544;13.374;2023-01-08T04:20:15;9.40;99.90
2130;DHT22;1071;52.544;13.374;2023-01-08T04:22:42;9.40;99.90
2130;DHT22;1071;52.544;13.374;2023-01-08T04:25:09;9.40;99.90
2130;DHT22;1071;52.544;13.374;2023-01-08T04:27:39;9.30;99.90
2130;DHT22;1071;52.544;13.374;2023-01-08T04:30:07;9.30;99.90
2130;DHT22;1071;52.544;13.374;2023-01-08T04:32:35;9.30;99.90
2130;DHT22;1071;52.544;13.374;2023-01-08T04:35:03;9.30;99.90
2130;DHT22;1071;52.544;13.374;2023-01-08T04:37:30;9.30;99.90
2130;DHT22;1071;52.544;13.374;2023-01-08T04:39:57;9.30;99.90
2130;DHT22;1071;52.544;13.374;2023-01-08T04:42:24;9.30;99.90
2130;DHT22;1071;52.544;13.374;2023-01-08T04:44:51;9.20;99.90
2130;DHT22;1071;52.544;13.374;2023-01-08T04:47:19;9.30;99.90
2130;DHT22;1071;52.544;13.374;2023-01-08T04:49:52;9.30;99.90
2130;DHT22;1071;52.544;13.374;2023-01-08T04:52:22;9.30;99.90
2130;DHT22;1071;52.544;13.374;2023-01-08T04:54:50;9.30;99.90
2130;DHT22;1071;52.544;13.374;2023-01-08T04:57:17;9.30;99.90
2130;DHT22;1071;52.544;13.374;2023-01-08T04:59:44;9.30;99.90
2130;DHT22;1071;52.544;13.374;2023-01-08T05:02:20;9.30;99.90
2130;DHT22;1071;52.544;13.374;2023-01-08T05:04:47;9.30;99.90
2130;DHT22;1071;52.544;13.374;2023-01-08T05:07:19;9.30;99.90
2130;DHT22;1071;52.544;13.374;2023-01-08T05:09:48;9.30;99.90
2130;DHT22;1071;52.544;13.374;2023-01-08T05:12:15;9.30;99.90
2130;DHT22;1071;52.544;13.374;2023-01-08T05:14:42;9.30;99.90
2130;DHT22;1071;52.544;13.374;2023-01-08T05:17:10;9.30;99.90
2130;DHT22;1071;52.544;13.374;2023-01-08T05:19:37;9.30;99.90
2130;DHT22;1071;52.544;13.374;2023-01-08T05:22:04;9.30;99.90
2130;DHT22;1071;52.544;13.374;2023-01-08T05:24:33;9.30;99.90
2130;DHT22;1071;52.544;13.374;2023-01-08T05:27:00;9.40;99.90
2130;DHT22;1071;52.544;13.374;2023-01-08T05:29:27;9.40;99.90
2130;DHT22;1071;52.544;13.374;2023-01-08T05:31:54;9.40;99.90
2130;DHT22;1071;52.544;13.374;2023-01-08T05:34:21;9.40;99.90
2130;DHT22;1071;52.544;13.374;2023-01-08T05:36:50;9.40;99.90
2130;DHT22;1071;52.544;13.374;2023-01-08T05:39:23;9.40;99.90
2130;DHT22;1071;52.544;13.374;2023-01-08T05:41:51;9.40;99.90
2130;DHT22;1071;52.544;13.374;2023-01-08T05:44:20;9.40;99.90
2130;DHT22;1071;52.544;13.374;2023-01-08T05:46:47;9.40;99.90
2130;DHT22;1071;52.544;13.374;2023-01-08T05:49:14;9.40;99.90
2130;DHT22;1071;52.544;13.374;2023-01-08T05:51:44;9.50;99.90
2130;DHT22;1071;52.544;13.374;2023-01-08T05:54:14;9.50;99.90
2130;DHT22;1071;52.544;13.374;2023-01-08T05:56:41;9.50;99.90
2130;DHT22;1071;52.544;13.374;2023-01-08T05:59:11;9.50;99.90
2130;DHT22;1071;52.544;13.374;2023-01-08T06:01:39;9.50;99.90
2130;DHT22;1071;52.544;13.374;2023-01-08T06:04:06;9.50;99.90
2130;DHT22;1071;52.544;13.374;2023-01-08T06:06:33;9.50;99.90
2130;DHT22;1071;52.544;13.374;2023-01-08T06:09:03;9.60;99.90
2130;DHT22;1071;52.544;13.374;2023-01-08T06:11:34;9.50;99.90
2130;DHT22;1071;52.544;13.374;2023-01-08T06:14:01;9.50;99.90
2130;DHT22;1071;52.544;13.374;2023-01-08T06:16:30;9.50;99.90
2130;DHT22;1071;52.544;13.374;2023-01-08T06:18:57;9.50;99.90
2130;DHT22;1071;52.544;13.374;2023-01-08T06:21:33;9.60;99.90
2130;DHT22;1071;52.544;13.374;2023-01-08T06:24:03;9.60;99.90
2130;DHT22;1071;52.544;13.374;2023-01-08T06:29:00;9.70;99.90
2130;DHT22;1071;52.544;13.374;2023-01-08T06:31:30;9.70;99.90
2130;DHT22;1071;52.544;13.374;2023-01-08T06:34:03;9.70;99.90
2130;DHT22;1071;52.544;13.374;2023-01-08T06:36:37;9.70;99.90
2130;DHT22;1071;52.544;13.374;2023-01-08T06:39:04;9.70;99.90
2130;DHT22;1071;52.544;13.374;2023-01-08T06:41:32;9.80;99.90
2130;DHT22;1071;52.544;13.374;2023-01-08T06:43:59;9.80;99.90
2130;DHT22;1071;52.544;13.374;2023-01-08T06:46:26;9.80;99.90
2130;DHT22;1071;52.544;13.374;2023-01-08T06:48:55;9.80;99.90
2130;DHT22;1071;52.544;13.374;2023-01-08T06:51:21;9.80;99.90
2130;DHT22;1071;52.544;13.374;2023-01-08T06:53:50;9.80;99.90
2130;DHT22;1071;52.544;13.374;2023-01-08T06:56:17;9.80;99.90
2130;DHT22;1071;52.544;13.374;2023-01-08T06:58:44;9.80;99.90
2130;DHT22;1071;52.544;13.374;2023-01-08T07:01:17;9.80;99.90
2130;DHT22;1071;52.544;13.374;2023-01-08T07:03:44;9.90;99.90
2130;DHT22;1071;52.544;13.374;2023-01-08T07:06:17;9.90;99.90
2130;DHT22;1071;52.544;13.374;2023-01-08T07:08:49;9.90;99.90
2130;DHT22;1071;52.544;13.374;2023-01-08T07:11:16;9.90;99.90
2130;DHT22;1071;52.544;13.374;2023-01-08T07:13:43;10.00;99.90
2130;DHT22;1071;52.544;13.374;2023-01-08T07:16:13;10.00;99.90
2130;DHT22;1071;52.544;13.374;2023-01-08T07:18:40;10.10;99.90
2130;DHT22;1071;52.544;13.374;2023-01-08T07:21:10;10.10;99.90
2130;DHT22;1071;52.544;13.374;2023-01-08T07:23:38;10.10;99.90
2130;DHT22;1071;52.544;13.374;2023-01-08T07:26:09;10.10;99.90
2130;DHT22;1071;52.544;13.374;2023-01-08T07:28:36;10.10;99.90
2130;DHT22;1071;52.544;13.374;2023-01-08T07:31:04;10.10;99.90
2130;DHT22;1071;52.544;13.374;2023-01-08T07:33:31;10.10;99.90
2130;DHT22;1071;52.544;13.374;2023-01-08T07:36:03;10.20;99.90
2130;DHT22;1071;52.544;13.374;2023-01-08T07:38:31;10.10;99.90
2130;DHT22;1071;52.544;13.374;2023-01-08T07:41:00;10.20;99.90
2130;DHT22;1071;52.544;13.374;2023-01-08T07:43:27;10.20;99.90
2130;DHT22;1071;52.544;13.374;2023-01-08T07:45:55;10.10;99.90
2130;DHT22;1071;52.544;13.374;2023-01-08T07:48:22;10.10;99.90
2130;DHT22;1071;52.544;13.374;2023-01-08T07:50:49;10.10;99.90
2130;DHT22;1071;52.544;13.374;2023-01-08T07:53:17;10.10;99.90
2130;DHT22;1071;52.544;13.374;2023-01-08T07:55:44;10.10;99.90
2130;DHT22;1071;52.544;13.374;2023-01-08T07:58:15;10.10;99.90
2130;DHT22;1071;52.544;13.374;2023-01-08T08:00:42;10.20;99.90
2130;DHT22;1071;52.544;13.374;2023-01-08T08:03:09;10.20;99.90
2130;DHT22;1071;52.544;13.374;2023-01-08T08:05:39;10.20;99.90
2130;DHT22;1071;52.544;13.374;2023-01-08T08:08:10;10.20;99.90
2130;DHT22;1071;52.544;13.374;2023-01-08T08:10:41;10.20;99.90
2130;DHT22;1071;52.544;13.374;2023-01-08T08:13:13;10.20;99.90
2130;DHT22;1071;52.544;13.374;2023-01-08T08:15:40;10.20;99.90
2130;DHT22;1071;52.544;13.374;2023-01-08T08:18:09;10.20;99.90
2130;DHT22;1071;52.544;13.374;2023-01-08T08:20:38;10.20;99.90
2130;DHT22;1071;52.544;13.374;2023-01-08T08:23:08;10.20;99.90
2130;DHT22;1071;52.544;13.374;2023-01-08T08:25:35;10.20;99.90
2130;DHT22;1071;52.544;13.374;2023-01-08T08:28:05;10.30;99.90
2130;DHT22;1071;52.544;13.374;2023-01-08T08:30:35;10.20;99.90
2130;DHT22;1071;52.544;13.374;2023-01-08T08:33:05;10.20;99.90
2130;DHT22;1071;52.544;13.374;2023-01-08T08:35:46;10.20;99.90
2130;DHT22;1071;52.544;13.374;2023-01-08T08:38:18;10.20;99.90
2130;DHT22;1071;52.544;13.374;2023-01-08T08:40:46;10.20;99.90
2130;DHT22;1071;52.544;13.374;2023-01-08T08:43:13;10.20;99.90
2130;DHT22;1071;52.544;13.374;2023-01-08T08:45:41;10.20;99.90
2130;DHT22;1071;52.544;13.374;2023-01-08T08:48:09;10.20;99.90
2130;DHT22;1071;52.544;13.374;2023-01-08T08:50:40;10.30;99.90
2130;DHT22;1071;52.544;13.374;2023-01-08T08:53:10;10.30;99.90
2130;DHT22;1071;52.544;13.374;2023-01-08T08:55:37;10.30;99.90
2130;DHT22;1071;52.544;13.374;2023-01-08T08:58:06;10.30;99.90
2130;DHT22;1071;52.544;13.374;2023-01-08T09:00:38;10.30;99.90
2130;DHT22;1071;52.544;13.374;2023-01-08T09:03:12;10.30;99.90
2130;DHT22;1071;52.544;13.374;2023-01-08T09:05:41;10.30;99.90
2130;DHT22;1071;52.544;13.374;2023-01-08T09:08:09;10.20;99.90
2130;DHT22;1071;52.544;13.374;2023-01-08T09:10:37;10.30;99.90
2130;DHT22;1071;52.544;13.374;2023-01-08T09:13:09;10.30;99.90
2130;DHT22;1071;52.544;13.374;2023-01-08T09:15:37;10.30;99.90
2130;DHT22;1071;52.544;13.374;2023-01-08T09:18:04;10.30;99.90
2130;DHT22;1071;52.544;13.374;2023-01-08T09:20:33;10.30;99.90
2130;DHT22;1071;52.544;13.374;2023-01-08T09:23:03;10.30;99.90
2130;DHT22;1071;52.544;13.374;2023-01-08T09:25:31;10.40;99.90
2130;DHT22;1071;52.544;13.374;2023-01-08T09:28:02;10.40;99.90
2130;DHT22;1071;52.544;13.374;2023-01-08T09:30:30;10.40;99.90
2130;DHT22;1071;52.544;13.374;2023-01-08T09:32:57;10.40;99.90
2130;DHT22;1071;52.544;13.374;2023-01-08T09:35:36;10.50;99.90
2130;DHT22;1071;52.544;13.374;2023-01-08T09:38:07;10.50;99.90
2130;DHT22;1071;52.544;13.374;2023-01-08T09:40:37;10.50;99.90
2130;DHT22;1071;52.544;13.374;2023-01-08T09:43:06;10.50;99.90
2130;DHT22;1071;52.544;13.374;2023-01-08T09:45:38;10.50;99.90
2130;DHT22;1071;52.544;13.374;2023-01-08T09:48:10;10.50;99.90
2130;DHT22;1071;52.544;13.374;2023-01-08T09:50:43;10.50;99.90
2130;DHT22;1071;52.544;13.374;2023-01-08T09:53:14;10.50;99.90
2130;DHT22;1071;52.544;13.374;2023-01-08T09:55:42;10.50;99.90
2130;DHT22;1071;52.544;13.374;2023-01-08T09:58:22;10.60;99.90
2130;DHT22;1071;52.544;13.374;2023-01-08T10:00:50;10.60;99.90
2130;DHT22;1071;52.544;13.374;2023-01-08T10:03:19;10.60;99.90
2130;DHT22;1071;52.544;13.374;2023-01-08T10:05:51;10.60;99.90
2130;DHT22;1071;52.544;13.374;2023-01-08T10:08:23;10.60;99.90
2130;DHT22;1071;52.544;13.374;2023-01-08T10:10:57;10.60;99.90
2130;DHT22;1071;52.544;13.374;2023-01-08T10:13:28;10.50;99.90
2130;DHT22;1071;52.544;13.374;2023-01-08T10:16:20;10.50;99.90
2130;DHT22;1071;52.544;13.374;2023-01-08T10:18:51;10.50;99.90
2130;DHT22;1071;52.544;13.374;2023-01-08T10:21:31;10.50;99.90
2130;DHT22;1071;52.544;13.374;2023-01-08T10:24:02;10.50;99.90
2130;DHT22;1071;52.544;13.374;2023-01-08T10:26:32;10.50;99.90
2130;DHT22;1071;52.544;13.374;2023-01-08T10:29:14;10.50;99.90
2130;DHT22;1071;52.544;13.374;2023-01-08T10:31:47;10.60;99.90
2130;DHT22;1071;52.544;13.374;2023-01-08T10:34:24;10.50;99.90
2130;DHT22;1071;52.544;13.374;2023-01-08T10:36:54;10.50;99.90
2130;DHT22;1071;52.544;13.374;2023-01-08T10:39:24;10.50;99.90
2130;DHT22;1071;52.544;13.374;2023-01-08T10:41:55;10.50;99.90
2130;DHT22;1071;52.544;13.374;2023-01-08T10:44:23;10.50;99.90
2130;DHT22;1071;52.544;13.374;2023-01-08T10:46:53;10.50;99.90
2130;DHT22;1071;52.544;13.374;2023-01-08T10:49:27;10.50;99.90
2130;DHT22;1071;52.544;13.374;2023-01-08T10:51:58;10.50;99.90
2130;DHT22;1071;52.544;13.374;2023-01-08T10:54:32;10.40;99.90
2130;DHT22;1071;52.544;13.374;2023-01-08T10:57:02;10.40;99.90
2130;DHT22;1071;52.544;13.374;2023-01-08T10:59:44;10.50;99.90
2130;DHT22;1071;52.544;13.374;2023-01-08T11:02:32;10.50;99.90
2130;DHT22;1071;52.544;13.374;2023-01-08T11:05:00;10.50;99.90
2130;DHT22;1071;52.544;13.374;2023-01-08T11:07:39;10.50;99.90
2130;DHT22;1071;52.544;13.374;2023-01-08T11:10:20;10.50;99.90
2130;DHT22;1071;52.544;13.374;2023-01-08T11:12:57;10.50;99.90
2130;DHT22;1071;52.544;13.374;2023-01-08T11:15:31;10.50;99.90
2130;DHT22;1071;52.544;13.374;2023-01-08T11:18:16;10.50;99.90
2130;DHT22;1071;52.544;13.374;2023-01-08T11:20:47;10.40;99.90
2130;DHT22;1071;52.544;13.374;2023-01-08T11:23:21;10.50;99.90
2130;DHT22;1071;52.544;13.374;2023-01-08T11:26:00;10.50;99.90
2130;DHT22;1071;52.544;13.374;2023-01-08T11:28:46;10.60;99.90
2130;DHT22;1071;52.544;13.374;2023-01-08T11:31:22;10.60;99.90
2130;DHT22;1071;52.544;13.374;2023-01-08T11:33:55;10.60;99.90
2130;DHT22;1071;52.544;13.374;2023-01-08T11:36:26;10.70;99.90
2130;DHT22;1071;52.544;13.374;2023-01-08T11:39:08;10.70;99.90
2130;DHT22;1071;52.544;13.374;2023-01-08T11:41:49;10.70;99.90
2130;DHT22;1071;52.544;13.374;2023-01-08T11:44:31;10.70;99.90
2130;DHT22;1071;52.544;13.374;2023-01-08T11:47:12;10.70;99.90
2130;DHT22;1071;52.544;13.374;2023-01-08T11:49:58;10.70;99.90
2130;DHT22;1071;52.544;13.374;2023-01-08T11:52:40;10.60;99.90
2130;DHT22;1071;52.544;13.374;2023-01-08T11:55:31;10.70;99.90
2130;DHT22;1071;52.544;13.374;2023-01-08T11:58:12;10.60;99.90
2130;DHT22;1071;52.544;13.374;2023-01-08T12:01:04;10.60;99.90
2130;DHT22;1071;52.544;13.374;2023-01-08T12:03:42;10.70;99.90
2130;DHT22;1071;52.544;13.374;2023-01-08T12:06:30;10.70;99.90
2130;DHT22;1071;52.544;13.374;2023-01-08T12:09:17;10.70;99.90
2130;DHT22;1071;52.544;13.374;2023-01-08T12:12:03;10.70;99.90
2130;DHT22;1071;52.544;13.374;2023-01-08T12:14:43;10.80;99.90
2130;DHT22;1071;52.544;13.374;2023-01-08T12:17:33;10.80;99.90
2130;DHT22;1071;52.544;13.374;2023-01-08T12:20:24;10.90;99.90
2130;DHT22;1071;52.544;13.374;2023-01-08T12:23:03;10.90;99.90
2130;DHT22;1071;52.544;13.374;2023-01-08T12:25:59;10.80;99.90
2130;DHT22;1071;52.544;13.374;2023-01-08T12:28:47;10.90;99.90
2130;DHT22;1071;52.544;13.374;2023-01-08T12:31:38;10.90;99.90
2130;DHT22;1071;52.544;13.374;2023-01-08T12:34:11;10.90;99.90
2130;DHT22;1071;52.544;13.374;2023-01-08T12:36:44;10.90;99.90
2130;DHT22;1071;52.544;13.374;2023-01-08T12:39:20;10.90;99.90
2130;DHT22;1071;52.544;13.374;2023-01-08T12:42:10;10.90;99.90
2130;DHT22;1071;52.544;13.374;2023-01-08T12:44:44;11.00;99.90
2130;DHT22;1071;52.544;13.374;2023-01-08T12:47:18;11.00;99.90
2130;DHT22;1071;52.544;13.374;2023-01-08T12:49:54;11.10;99.90
2130;DHT22;1071;52.544;13.374;2023-01-08T12:52:28;11.10;99.90
2130;DHT22;1071;52.544;13.374;2023-01-08T12:55:04;11.10;99.90
2130;DHT22;1071;52.544;13.374;2023-01-08T12:57:45;11.10;99.90
2130;DHT22;1071;52.544;13.374;2023-01-08T13:00:32;11.20;99.90
2130;DHT22;1071;52.544;13.374;2023-01-08T13:03:03;11.10;99.90
2130;DHT22;1071;52.544;13.374;2023-01-08T13:05:34;11.10;99.90
2130;DHT22;1071;52.544;13.374;2023-01-08T13:08:03;11.10;99.90
2130;DHT22;1071;52.544;13.374;2023-01-08T13:10:40;11.10;99.90
2130;DHT22;1071;52.544;13.374;2023-01-08T13:13:34;11.10;99.90
2130;DHT22;1071;52.544;13.374;2023-01-08T13:16:19;11.10;99.90
2130;DHT22;1071;52.544;13.374;2023-01-08T13:18:52;11.20;99.90
2130;DHT22;1071;52.544;13.374;2023-01-08T13:21:29;11.20;99.90
2130;DHT22;1071;52.544;13.374;2023-01-08T13:24:20;11.10;99.90
2130;DHT22;1071;52.544;13.374;2023-01-08T13:26:51;11.10;99.90
2130;DHT22;1071;52.544;13.374;2023-01-08T13:29:40;11.10;99.90
2130;DHT22;1071;52.544;13.374;2023-01-08T13:32:35;11.10;99.90
2130;DHT22;1071;52.544;13.374;2023-01-08T13:35:24;11.10;99.90
2130;DHT22;1071;52.544;13.374;2023-01-08T13:38:04;11.10;99.90
2130;DHT22;1071;52.544;13.374;2023-01-08T13:40:48;11.10;99.90
2130;DHT22;1071;52.544;13.374;2023-01-08T13:43:20;11.10;99.90
2130;DHT22;1071;52.544;13.374;2023-01-08T13:46:12;11.00;99.90
2130;DHT22;1071;52.544;13.374;2023-01-08T13:49:04;11.00;99.90
2130;DHT22;1071;52.544;13.374;2023-01-08T13:51:49;11.00;99.90
2130;DHT22;1071;52.544;13.374;2023-01-08T13:54:30;11.00;99.90
2130;DHT22;1071;52.544;13.374;2023-01-08T13:57:10;11.00;99.90
2130;DHT22;1071;52.544;13.374;2023-01-08T13:59:40;11.00;99.90
2130;DHT22;1071;52.544;13.374;2023-01-08T14:02:26;11.00;99.90
2130;DHT22;1071;52.544;13.374;2023-01-08T14:04:59;11.00;99.90
2130;DHT22;1071;52.544;13.374;2023-01-08T14:07:27;11.00;99.90
2130;DHT22;1071;52.544;13.374;2023-01-08T14:10:06;10.90;99.90
2130;DHT22;1071;52.544;13.374;2023-01-08T14:12:34;10.90;99.90
2130;DHT22;1071;52.544;13.374;2023-01-08T14:15:01;10.90;99.90
2130;DHT22;1071;52.544;13.374;2023-01-08T14:17:34;10.90;99.90
2130;DHT22;1071;52.544;13.374;2023-01-08T14:20:08;10.90;99.90
2130;DHT22;1071;52.544;13.374;2023-01-08T14:22:36;10.90;99.90
2130;DHT22;1071;52.544;13.374;2023-01-08T14:25:05;10.90;99.90
2130;DHT22;1071;52.544;13.374;2023-01-08T14:28:02;10.90;99.90
2130;DHT22;1071;52.544;13.374;2023-01-08T14:30:30;10.80;99.90
2130;DHT22;1071;52.544;13.374;2023-01-08T14:33:03;10.80;99.90
2130;DHT22;1071;52.544;13.374;2023-01-08T14:35:44;10.80;99.90
2130;DHT22;1071;52.544;13.374;2023-01-08T14:41:32;10.80;99.90
2130;DHT22;1071;52.544;13.374;2023-01-08T14:44:21;10.70;99.90
2130;DHT22;1071;52.544;13.374;2023-01-08T14:46:51;10.70;99.90
2130;DHT22;1071;52.544;13.374;2023-01-08T14:49:21;10.80;99.90
2130;DHT22;1071;52.544;13.374;2023-01-08T14:51:53;10.80;99.90
2130;DHT22;1071;52.544;13.374;2023-01-08T14:54:46;10.80;99.90
2130;DHT22;1071;52.544;13.374;2023-01-08T14:57:18;10.80;99.90
2130;DHT22;1071;52.544;13.374;2023-01-08T14:59:55;10.80;99.90
2130;DHT22;1071;52.544;13.374;2023-01-08T15:02:30;10.80;99.90
2130;DHT22;1071;52.544;13.374;2023-01-08T15:05:14;10.80;99.90
2130;DHT22;1071;52.544;13.374;2023-01-08T15:07:55;10.70;99.90
2130;DHT22;1071;52.544;13.374;2023-01-08T15:10:35;10.70;99.90
2130;DHT22;1071;52.544;13.374;2023-01-08T15:13:05;10.70;99.90
2130;DHT22;1071;52.544;13.374;2023-01-08T15:15:51;10.70;99.90
2130;DHT22;1071;52.544;13.374;2023-01-08T15:18:21;10.70;99.90
2130;DHT22;1071;52.544;13.374;2023-01-08T15:20:51;10.70;99.90
2130;DHT22;1071;52.544;13.374;2023-01-08T15:23:36;10.70;99.90
2130;DHT22;1071;52.544;13.374;2023-01-08T15:26:10;10.70;99.90
2130;DHT22;1071;52.544;13.374;2023-01-08T15:28:45;10.70;99.90
2130;DHT22;1071;52.544;13.374;2023-01-08T15:31:23;10.70;99.90
2130;DHT22;1071;52.544;13.374;2023-01-08T15:33:50;10.70;99.90
2130;DHT22;1071;52.544;13.374;2023-01-08T15:36:17;10.70;99.90
2130;DHT22;1071;52.544;13.374;2023-01-08T15:38:47;10.70;99.90
2130;DHT22;1071;52.544;13.374;2023-01-08T15:41:17;10.70;99.90
2130;DHT22;1071;52.544;13.374;2023-01-08T15:44:06;10.70;99.90
2130;DHT22;1071;52.544;13.374;2023-01-08T15:46:32;10.70;99.90
2130;DHT22;1071;52.544;13.374;2023-01-08T15:48:59;10.70;99.90
2130;DHT22;1071;52.544;13.374;2023-01-08T15:51:27;10.60;99.90
2130;DHT22;1071;52.544;13.374;2023-01-08T15:53:58;10.50;99.90
2130;DHT22;1071;52.544;13.374;2023-01-08T15:56:25;10.50;99.90
2130;DHT22;1071;52.544;13.374;2023-01-08T15:58:58;10.50;99.90
2130;DHT22;1071;52.544;13.374;2023-01-08T16:01:27;10.60;99.90
2130;DHT22;1071;52.544;13.374;2023-01-08T16:03:54;10.50;99.90
2130;DHT22;1071;52.544;13.374;2023-01-08T16:06:23;10.50;99.90
2130;DHT22;1071;52.544;13.374;2023-01-08T16:09:02;10.50;99.90
2130;DHT22;1071;52.544;13.374;2023-01-08T16:11:29;10.50;99.90
2130;DHT22;1071;52.544;13.374;2023-01-08T16:13:59;10.50;99.90
2130;DHT22;1071;52.544;13.374;2023-01-08T16:16:26;10.50;99.90
2130;DHT22;1071;52.544;13.374;2023-01-08T16:18:53;10.50;99.90
2130;DHT22;1071;52.544;13.374;2023-01-08T16:21:20;10.50;99.90
2130;DHT22;1071;52.544;13.374;2023-01-08T16:23:52;10.50;99.90
2130;DHT22;1071;52.544;13.374;2023-01-08T16:26:26;10.50;99.90
2130;DHT22;1071;52.544;13.374;2023-01-08T16:28:57;10.50;99.90
2130;DHT22;1071;52.544;13.374;2023-01-08T16:31:30;10.50;99.90